sensor_id;sensor_type;location;lat;lon;timestamp;P1;durP1;ratioP1;P2;durP2;ratioP2
25615;SDS011;13482;48.234;13.006;2024-03-02T00:01:16;15.45;;;10.05;;
25615;SDS011;13482;48.234;13.006;2024-03-02T00:03:43;12.50;;;10.23;;
25615;SDS011;13482;48.234;13.006;2024-03-02T00:06:11;13.38;;;10.02;;
25615;SDS011;13482;48.234;13.006;2024-03-02T00:08:38;13.15;;;9.82;;
25615;SDS011;13482;48.234;13.006;2024-03-02T00:11:06;12.80;;;10.40;;
25615;SDS011;13482;48.234;13.006;2024-03-02T00:13:34;13.20;;;9.95;;
25615;SDS011;13482;48.234;13.006;2024-03-02T00:16:02;12.75;;;9.95;;
25615;SDS011;13482;48.234;13.006;2024-03-02T00:18:32;13.80;;;10.98;;
25615;SDS011;13482;48.234;13.006;2024-03-02T00:21:02;12.05;;;8.82;;
25615;SDS011;13482;48.234;13.006;2024-03-02T00:23:33;12.88;;;9.10;;
25615;SDS011;13482;48.234;13.006;2024-03-02T00:26:01;14.38;;;9.88;;
25615;SDS011;13482;48.234;13.006;2024-03-02T00:28:31;12.40;;;9.70;;
25615;SDS011;13482;48.234;13.006;2024-03-02T00:31:05;23.70;;;10.85;;
25615;SDS011;13482;48.234;13.006;2024-03-02T00:33:36;12.88;;;10.43;;
25615;SDS011;13482;48.234;13.006;2024-03-02T00:36:13;12.27;;;9.80;;
25615;SDS011;13482;48.234;13.006;2024-03-02T00:38:44;15.57;;;11.07;;
25615;SDS011;13482;48.234;13.006;2024-03-02T00:41:19;14.20;;;10.80;;
25615;SDS011;13482;48.234;13.006;2024-03-02T00:46:27;14.43;;;11.05;;
25615;SDS011;13482;48.234;13.006;2024-03-02T00:49:00;15.48;;;11.52;;
25615;SDS011;13482;48.234;13.006;2024-03-02T00:51:38;12.30;;;9.32;;
25615;SDS011;13482;48.234;13.006;2024-03-02T00:54:07;13.05;;;9.90;;
25615;SDS011;13482;48.234;13.006;2024-03-02T00:56:36;15.55;;;11.63;;
25615;SDS011;13482;48.234;13.006;2024-03-02T00:59:04;16.33;;;11.00;;
25615;SDS011;13482;48.234;13.006;2024-03-02T01:01:31;14.63;;;10.73;;
25615;SDS011;13482;48.234;13.006;2024-03-02T01:03:58;13.95;;;10.35;;
25615;SDS011;13482;48.234;13.006;2024-03-02T01:06:26;17.02;;;11.63;;
25615;SDS011;13482;48.234;13.006;2024-03-02T01:08:54;16.33;;;11.98;;
25615;SDS011;13482;48.234;13.006;2024-03-02T01:11:21;18.27;;;12.10;;
25615;SDS011;13482;48.234;13.006;2024-03-02T01:13:49;16.27;;;12.15;;
25615;SDS011;13482;48.234;13.006;2024-03-02T01:16:20;14.20;;;11.02;;
25615;SDS011;13482;48.234;13.006;2024-03-02T01:18:48;16.85;;;12.07;;
25615;SDS011;13482;48.234;13.006;2024-03-02T01:21:16;15.60;;;11.32;;
25615;SDS011;13482;48.234;13.006;2024-03-02T01:23:44;15.00;;;11.07;;
25615;SDS011;13482;48.234;13.006;2024-03-02T01:26:11;20.58;;;11.43;;
25615;SDS011;13482;48.234;13.006;2024-03-02T01:28:38;16.67;;;11.73;;
25615;SDS011;13482;48.234;13.006;2024-03-02T01:31:06;18.58;;;11.82;;
25615;SDS011;13482;48.234;13.006;2024-03-02T01:33:34;15.55;;;11.02;;
25615;SDS011;13482;48.234;13.006;2024-03-02T01:36:01;17.13;;;10.45;;
25615;SDS011;13482;48.234;13.006;2024-03-02T01:38:29;15.13;;;11.05;;
25615;SDS011;13482;48.234;13.006;2024-03-02T01:40:57;20.45;;;12.43;;
25615;SDS011;13482;48.234;13.006;2024-03-02T01:43:25;18.88;;;11.98;;
25615;SDS011;13482;48.234;13.006;2024-03-02T01:45:52;17.08;;;12.68;;
25615;SDS011;13482;48.234;13.006;2024-03-02T01:48:20;15.75;;;11.55;;
25615;SDS011;13482;48.234;13.006;2024-03-02T01:50:47;16.75;;;11.30;;
25615;SDS011;13482;48.234;13.006;2024-03-02T01:53:15;17.52;;;12.43;;
25615;SDS011;13482;48.234;13.006;2024-03-02T01:55:43;22.80;;;12.90;;
25615;SDS011;13482;48.234;13.006;2024-03-02T01:58:11;15.95;;;12.43;;
25615;SDS011;13482;48.234;13.006;2024-03-02T02:00:38;20.80;;;13.07;;
25615;SDS011;13482;48.234;13.006;2024-03-02T02:03:06;16.23;;;10.75;;
25615;SDS011;13482;48.234;13.006;2024-03-02T02:05:34;13.68;;;10.32;;
25615;SDS011;13482;48.234;13.006;2024-03-02T02:08:02;15.95;;;11.30;;
25615;SDS011;13482;48.234;13.006;2024-03-02T02:10:29;18.48;;;11.95;;
25615;SDS011;13482;48.234;13.006;2024-03-02T02:12:57;13.65;;;10.57;;
25615;SDS011;13482;48.234;13.006;2024-03-02T02:15:25;19.95;;;11.75;;
25615;SDS011;13482;48.234;13.006;2024-03-02T02:17:55;15.27;;;11.23;;
25615;SDS011;13482;48.234;13.006;2024-03-02T02:20:24;17.13;;;10.45;;
25615;SDS011;13482;48.234;13.006;2024-03-02T02:22:56;16.25;;;10.80;;
25615;SDS011;13482;48.234;13.006;2024-03-02T02:25:37;13.48;;;10.02;;
25615;SDS011;13482;48.234;13.006;2024-03-02T02:28:06;15.10;;;10.32;;
25615;SDS011;13482;48.234;13.006;2024-03-02T02:30:34;16.50;;;10.20;;
25615;SDS011;13482;48.234;13.006;2024-03-02T02:33:01;16.17;;;9.75;;
25615;SDS011;13482;48.234;13.006;2024-03-02T02:35:29;12.48;;;9.63;;
25615;SDS011;13482;48.234;13.006;2024-03-02T02:37:57;18.30;;;9.52;;
25615;SDS011;13482;48.234;13.006;2024-03-02T02:40:27;13.98;;;9.88;;
25615;SDS011;13482;48.234;13.006;2024-03-02T02:42:57;11.30;;;8.77;;
25615;SDS011;13482;48.234;13.006;2024-03-02T02:45:25;14.70;;;8.65;;
25615;SDS011;13482;48.234;13.006;2024-03-02T02:47:53;19.40;;;8.70;;
25615;SDS011;13482;48.234;13.006;2024-03-02T02:50:20;14.35;;;8.20;;
25615;SDS011;13482;48.234;13.006;2024-03-02T02:52:48;10.40;;;8.00;;
25615;SDS011;13482;48.234;13.006;2024-03-02T02:55:15;9.63;;;7.60;;
25615;SDS011;13482;48.234;13.006;2024-03-02T02:57:43;17.63;;;7.88;;
25615;SDS011;13482;48.234;13.006;2024-03-02T03:00:13;17.15;;;8.00;;
25615;SDS011;13482;48.234;13.006;2024-03-02T03:05:15;13.15;;;6.53;;
25615;SDS011;13482;48.234;13.006;2024-03-02T03:07:43;9.50;;;6.85;;
25615;SDS011;13482;48.234;13.006;2024-03-02T03:10:12;17.90;;;8.45;;
25615;SDS011;13482;48.234;13.006;2024-03-02T03:12:41;15.13;;;8.10;;
25615;SDS011;13482;48.234;13.006;2024-03-02T03:15:10;16.23;;;8.40;;
25615;SDS011;13482;48.234;13.006;2024-03-02T03:17:39;11.23;;;7.85;;
25615;SDS011;13482;48.234;13.006;2024-03-02T03:20:08;16.30;;;8.00;;
25615;SDS011;13482;48.234;13.006;2024-03-02T03:22:37;11.23;;;8.15;;
25615;SDS011;13482;48.234;13.006;2024-03-02T03:25:05;18.05;;;8.05;;
25615;SDS011;13482;48.234;13.006;2024-03-02T03:27:36;12.37;;;7.73;;
25615;SDS011;13482;48.234;13.006;2024-03-02T03:30:04;10.43;;;7.28;;
25615;SDS011;13482;48.234;13.006;2024-03-02T03:32:33;8.98;;;7.55;;
25615;SDS011;13482;48.234;13.006;2024-03-02T03:35:01;8.80;;;7.35;;
25615;SDS011;13482;48.234;13.006;2024-03-02T03:37:30;12.95;;;8.48;;
25615;SDS011;13482;48.234;13.006;2024-03-02T03:40:01;10.95;;;8.00;;
25615;SDS011;13482;48.234;13.006;2024-03-02T03:42:29;13.75;;;8.30;;
25615;SDS011;13482;48.234;13.006;2024-03-02T03:44:57;20.63;;;8.63;;
25615;SDS011;13482;48.234;13.006;2024-03-02T03:47:24;12.15;;;8.00;;
25615;SDS011;13482;48.234;13.006;2024-03-02T03:49:52;12.10;;;8.25;;
25615;SDS011;13482;48.234;13.006;2024-03-02T03:52:19;10.23;;;8.68;;
25615;SDS011;13482;48.234;13.006;2024-03-02T03:54:47;12.32;;;8.27;;
25615;SDS011;13482;48.234;13.006;2024-03-02T03:57:15;13.38;;;8.00;;
25615;SDS011;13482;48.234;13.006;2024-03-02T03:59:43;11.40;;;8.05;;
25615;SDS011;13482;48.234;13.006;2024-03-02T04:02:11;10.60;;;7.80;;
25615;SDS011;13482;48.234;13.006;2024-03-02T04:04:39;11.77;;;8.10;;
25615;SDS011;13482;48.234;13.006;2024-03-02T04:07:06;9.88;;;8.32;;
25615;SDS011;13482;48.234;13.006;2024-03-02T04:09:34;8.70;;;7.38;;
25615;SDS011;13482;48.234;13.006;2024-03-02T04:12:01;11.95;;;8.52;;
25615;SDS011;13482;48.234;13.006;2024-03-02T04:14:29;8.05;;;6.78;;
25615;SDS011;13482;48.234;13.006;2024-03-02T04:16:56;12.52;;;7.28;;
25615;SDS011;13482;48.234;13.006;2024-03-02T04:19:24;11.32;;;7.63;;
25615;SDS011;13482;48.234;13.006;2024-03-02T04:21:51;11.35;;;8.65;;
25615;SDS011;13482;48.234;13.006;2024-03-02T04:24:18;12.93;;;8.18;;
25615;SDS011;13482;48.234;13.006;2024-03-02T04:26:46;10.63;;;8.60;;
25615;SDS011;13482;48.234;13.006;2024-03-02T04:29:13;11.25;;;8.73;;
25615;SDS011;13482;48.234;13.006;2024-03-02T04:31:41;15.43;;;8.15;;
25615;SDS011;13482;48.234;13.006;2024-03-02T04:34:08;12.52;;;8.43;;
25615;SDS011;13482;48.234;13.006;2024-03-02T04:36:35;11.13;;;8.65;;
25615;SDS011;13482;48.234;13.006;2024-03-02T04:39:03;14.75;;;8.63;;
25615;SDS011;13482;48.234;13.006;2024-03-02T04:41:31;13.23;;;8.82;;
25615;SDS011;13482;48.234;13.006;2024-03-02T04:43:58;18.50;;;8.38;;
25615;SDS011;13482;48.234;13.006;2024-03-02T04:46:25;9.75;;;7.78;;
25615;SDS011;13482;48.234;13.006;2024-03-02T04:48:53;12.27;;;7.95;;
25615;SDS011;13482;48.234;13.006;2024-03-02T04:51:23;10.95;;;8.52;;
25615;SDS011;13482;48.234;13.006;2024-03-02T04:53:51;13.27;;;8.63;;
25615;SDS011;13482;48.234;13.006;2024-03-02T04:56:18;12.13;;;8.85;;
25615;SDS011;13482;48.234;13.006;2024-03-02T04:59:05;12.07;;;8.57;;
25615;SDS011;13482;48.234;13.006;2024-03-02T05:01:33;11.60;;;8.80;;
25615;SDS011;13482;48.234;13.006;2024-03-02T05:04:00;16.38;;;9.27;;
25615;SDS011;13482;48.234;13.006;2024-03-02T05:06:28;11.60;;;8.43;;
25615;SDS011;13482;48.234;13.006;2024-03-02T05:08:56;13.02;;;8.55;;
25615;SDS011;13482;48.234;13.006;2024-03-02T05:11:24;15.68;;;8.40;;
25615;SDS011;13482;48.234;13.006;2024-03-02T05:14:04;9.80;;;7.88;;
25615;SDS011;13482;48.234;13.006;2024-03-02T05:16:33;9.75;;;7.32;;
25615;SDS011;13482;48.234;13.006;2024-03-02T05:19:01;11.13;;;8.02;;
25615;SDS011;13482;48.234;13.006;2024-03-02T05:21:29;9.60;;;7.82;;
25615;SDS011;13482;48.234;13.006;2024-03-02T05:23:56;11.05;;;8.07;;
25615;SDS011;13482;48.234;13.006;2024-03-02T05:26:24;10.82;;;8.30;;
25615;SDS011;13482;48.234;13.006;2024-03-02T05:28:51;11.10;;;7.63;;
25615;SDS011;13482;48.234;13.006;2024-03-02T05:31:19;10.50;;;8.27;;
25615;SDS011;13482;48.234;13.006;2024-03-02T05:33:46;9.63;;;7.38;;
25615;SDS011;13482;48.234;13.006;2024-03-02T05:36:15;12.32;;;7.88;;
25615;SDS011;13482;48.234;13.006;2024-03-02T05:38:43;13.98;;;7.28;;
25615;SDS011;13482;48.234;13.006;2024-03-02T05:41:10;14.80;;;7.32;;
25615;SDS011;13482;48.234;13.006;2024-03-02T05:43:38;13.85;;;7.78;;
25615;SDS011;13482;48.234;13.006;2024-03-02T05:46:06;14.10;;;7.15;;
25615;SDS011;13482;48.234;13.006;2024-03-02T05:48:33;11.82;;;8.68;;
25615;SDS011;13482;48.234;13.006;2024-03-02T05:51:00;12.60;;;8.18;;
25615;SDS011;13482;48.234;13.006;2024-03-02T05:53:28;10.68;;;8.32;;
25615;SDS011;13482;48.234;13.006;2024-03-02T05:55:56;12.40;;;8.57;;
25615;SDS011;13482;48.234;13.006;2024-03-02T05:58:26;11.85;;;8.45;;
25615;SDS011;13482;48.234;13.006;2024-03-02T06:01:12;11.68;;;8.00;;
25615;SDS011;13482;48.234;13.006;2024-03-02T06:03:40;13.75;;;8.45;;
25615;SDS011;13482;48.234;13.006;2024-03-02T06:06:08;12.75;;;8.07;;
25615;SDS011;13482;48.234;13.006;2024-03-02T06:08:35;15.02;;;8.55;;
25615;SDS011;13482;48.234;13.006;2024-03-02T06:11:03;18.42;;;8.57;;
25615;SDS011;13482;48.234;13.006;2024-03-02T06:13:30;12.15;;;7.68;;
25615;SDS011;13482;48.234;13.006;2024-03-02T06:15:58;12.30;;;8.52;;
25615;SDS011;13482;48.234;13.006;2024-03-02T06:18:26;10.27;;;7.57;;
25615;SDS011;13482;48.234;13.006;2024-03-02T06:20:54;17.50;;;8.73;;
25615;SDS011;13482;48.234;13.006;2024-03-02T06:23:22;10.85;;;8.00;;
25615;SDS011;13482;48.234;13.006;2024-03-02T06:25:49;12.25;;;8.00;;
25615;SDS011;13482;48.234;13.006;2024-03-02T06:28:17;15.60;;;8.40;;
25615;SDS011;13482;48.234;13.006;2024-03-02T06:30:45;11.88;;;8.02;;
25615;SDS011;13482;48.234;13.006;2024-03-02T06:33:12;14.18;;;8.00;;
25615;SDS011;13482;48.234;13.006;2024-03-02T06:35:40;14.52;;;7.70;;
25615;SDS011;13482;48.234;13.006;2024-03-02T06:38:07;18.75;;;8.82;;
25615;SDS011;13482;48.234;13.006;2024-03-02T06:40:35;12.93;;;8.68;;
25615;SDS011;13482;48.234;13.006;2024-03-02T06:43:06;12.55;;;8.32;;
25615;SDS011;13482;48.234;13.006;2024-03-02T06:45:33;15.45;;;8.55;;
25615;SDS011;13482;48.234;13.006;2024-03-02T06:48:01;11.10;;;8.13;;
25615;SDS011;13482;48.234;13.006;2024-03-02T06:50:28;12.82;;;8.43;;
25615;SDS011;13482;48.234;13.006;2024-03-02T06:52:56;13.95;;;8.55;;
25615;SDS011;13482;48.234;13.006;2024-03-02T06:55:24;11.20;;;8.52;;
25615;SDS011;13482;48.234;13.006;2024-03-02T06:57:51;13.38;;;9.20;;
25615;SDS011;13482;48.234;13.006;2024-03-02T07:00:19;13.30;;;8.82;;
25615;SDS011;13482;48.234;13.006;2024-03-02T07:02:49;11.50;;;8.13;;
25615;SDS011;13482;48.234;13.006;2024-03-02T07:05:16;11.23;;;8.65;;
25615;SDS011;13482;48.234;13.006;2024-03-02T07:07:44;12.38;;;9.38;;
25615;SDS011;13482;48.234;13.006;2024-03-02T07:10:11;14.48;;;9.25;;
25615;SDS011;13482;48.234;13.006;2024-03-02T07:12:39;15.02;;;9.23;;
25615;SDS011;13482;48.234;13.006;2024-03-02T07:15:06;13.50;;;9.60;;
25615;SDS011;13482;48.234;13.006;2024-03-02T07:17:38;11.85;;;8.07;;
25615;SDS011;13482;48.234;13.006;2024-03-02T07:20:05;11.10;;;8.35;;
25615;SDS011;13482;48.234;13.006;2024-03-02T07:22:33;11.80;;;8.50;;
25615;SDS011;13482;48.234;13.006;2024-03-02T07:25:01;12.23;;;8.75;;
25615;SDS011;13482;48.234;13.006;2024-03-02T07:27:30;10.88;;;7.97;;
25615;SDS011;13482;48.234;13.006;2024-03-02T07:29:58;12.60;;;8.45;;
25615;SDS011;13482;48.234;13.006;2024-03-02T07:32:25;13.10;;;8.32;;
25615;SDS011;13482;48.234;13.006;2024-03-02T07:34:53;11.23;;;8.18;;
25615;SDS011;13482;48.234;13.006;2024-03-02T07:37:20;11.70;;;8.20;;
25615;SDS011;13482;48.234;13.006;2024-03-02T07:39:50;13.23;;;9.65;;
25615;SDS011;13482;48.234;13.006;2024-03-02T07:42:17;11.10;;;8.32;;
25615;SDS011;13482;48.234;13.006;2024-03-02T07:44:45;11.75;;;8.07;;
25615;SDS011;13482;48.234;13.006;2024-03-02T07:47:12;13.18;;;9.82;;
25615;SDS011;13482;48.234;13.006;2024-03-02T07:49:40;16.40;;;10.35;;
25615;SDS011;13482;48.234;13.006;2024-03-02T07:52:07;14.80;;;9.68;;
25615;SDS011;13482;48.234;13.006;2024-03-02T07:54:35;13.73;;;9.60;;
25615;SDS011;13482;48.234;13.006;2024-03-02T07:57:02;13.23;;;9.13;;
25615;SDS011;13482;48.234;13.006;2024-03-02T07:59:30;12.77;;;8.75;;
25615;SDS011;13482;48.234;13.006;2024-03-02T08:01:58;13.50;;;9.23;;
25615;SDS011;13482;48.234;13.006;2024-03-02T08:04:25;13.50;;;9.43;;
25615;SDS011;13482;48.234;13.006;2024-03-02T08:06:53;12.80;;;9.43;;
25615;SDS011;13482;48.234;13.006;2024-03-02T08:09:21;13.93;;;9.43;;
25615;SDS011;13482;48.234;13.006;2024-03-02T08:11:49;15.25;;;9.95;;
25615;SDS011;13482;48.234;13.006;2024-03-02T08:14:16;14.68;;;10.13;;
25615;SDS011;13482;48.234;13.006;2024-03-02T08:16:43;14.73;;;10.95;;
25615;SDS011;13482;48.234;13.006;2024-03-02T08:19:11;15.40;;;10.38;;
25615;SDS011;13482;48.234;13.006;2024-03-02T08:21:39;13.20;;;9.43;;
25615;SDS011;13482;48.234;13.006;2024-03-02T08:24:07;14.82;;;9.82;;
25615;SDS011;13482;48.234;13.006;2024-03-02T08:26:34;13.70;;;9.88;;
25615;SDS011;13482;48.234;13.006;2024-03-02T08:29:02;14.95;;;10.73;;
25615;SDS011;13482;48.234;13.006;2024-03-02T08:34:39;12.73;;;9.15;;
25615;SDS011;13482;48.234;13.006;2024-03-02T08:37:07;13.73;;;9.60;;
25615;SDS011;13482;48.234;13.006;2024-03-02T08:39:34;15.63;;;10.15;;
25615;SDS011;13482;48.234;13.006;2024-03-02T08:42:02;14.48;;;10.13;;
25615;SDS011;13482;48.234;13.006;2024-03-02T08:44:30;13.40;;;9.63;;
25615;SDS011;13482;48.234;13.006;2024-03-02T08:46:59;13.93;;;9.90;;
25615;SDS011;13482;48.234;13.006;2024-03-02T08:49:27;14.00;;;10.40;;
25615;SDS011;13482;48.234;13.006;2024-03-02T08:51:54;16.63;;;11.10;;
25615;SDS011;13482;48.234;13.006;2024-03-02T08:54:22;14.90;;;10.90;;
25615;SDS011;13482;48.234;13.006;2024-03-02T08:56:50;15.18;;;10.85;;
25615;SDS011;13482;48.234;13.006;2024-03-02T08:59:20;16.30;;;11.93;;
25615;SDS011;13482;48.234;13.006;2024-03-02T09:01:48;16.65;;;11.00;;
25615;SDS011;13482;48.234;13.006;2024-03-02T09:04:16;16.75;;;11.57;;
25615;SDS011;13482;48.234;13.006;2024-03-02T09:06:43;17.35;;;11.98;;
25615;SDS011;13482;48.234;13.006;2024-03-02T09:09:11;19.08;;;12.60;;
25615;SDS011;13482;48.234;13.006;2024-03-02T09:11:38;19.42;;;12.52;;
25615;SDS011;13482;48.234;13.006;2024-03-02T09:14:06;17.63;;;12.80;;
25615;SDS011;13482;48.234;13.006;2024-03-02T09:16:33;20.13;;;13.27;;
25615;SDS011;13482;48.234;13.006;2024-03-02T09:19:01;18.70;;;12.50;;
25615;SDS011;13482;48.234;13.006;2024-03-02T09:21:28;20.40;;;13.75;;
25615;SDS011;13482;48.234;13.006;2024-03-02T09:23:56;19.73;;;13.27;;
25615;SDS011;13482;48.234;13.006;2024-03-02T09:26:24;18.42;;;12.52;;
25615;SDS011;13482;48.234;13.006;2024-03-02T09:28:53;19.98;;;13.05;;
25615;SDS011;13482;48.234;13.006;2024-03-02T09:31:39;18.48;;;12.48;;
25615;SDS011;13482;48.234;13.006;2024-03-02T09:34:10;16.52;;;12.18;;
25615;SDS011;13482;48.234;13.006;2024-03-02T09:36:37;18.17;;;12.93;;
25615;SDS011;13482;48.234;13.006;2024-03-02T09:39:07;20.05;;;13.13;;
25615;SDS011;13482;48.234;13.006;2024-03-02T09:41:36;19.20;;;12.68;;
25615;SDS011;13482;48.234;13.006;2024-03-02T09:44:05;17.27;;;12.10;;
25615;SDS011;13482;48.234;13.006;2024-03-02T09:46:34;16.85;;;12.55;;
25615;SDS011;13482;48.234;13.006;2024-03-02T09:49:03;15.50;;;11.13;;
25615;SDS011;13482;48.234;13.006;2024-03-02T09:51:31;16.95;;;12.02;;
25615;SDS011;13482;48.234;13.006;2024-03-02T09:53:58;16.98;;;11.90;;
25615;SDS011;13482;48.234;13.006;2024-03-02T09:56:46;17.15;;;11.55;;
25615;SDS011;13482;48.234;13.006;2024-03-02T09:59:14;16.17;;;11.93;;
25615;SDS011;13482;48.234;13.006;2024-03-02T10:02:17;15.95;;;11.65;;
25615;SDS011;13482;48.234;13.006;2024-03-02T10:04:38;16.92;;;12.05;;
25615;SDS011;13482;48.234;13.006;2024-03-02T10:07:12;15.40;;;11.40;;
25615;SDS011;13482;48.234;13.006;2024-03-02T10:09:45;15.00;;;11.02;;
25615;SDS011;13482;48.234;13.006;2024-03-02T10:12:15;17.45;;;12.25;;
25615;SDS011;13482;48.234;13.006;2024-03-02T10:14:44;16.33;;;11.90;;
25615;SDS011;13482;48.234;13.006;2024-03-02T10:17:12;16.92;;;12.27;;
25615;SDS011;13482;48.234;13.006;2024-03-02T10:19:42;16.85;;;12.35;;
25615;SDS011;13482;48.234;13.006;2024-03-02T10:22:09;16.95;;;12.63;;
25615;SDS011;13482;48.234;13.006;2024-03-02T10:24:41;15.02;;;11.73;;
25615;SDS011;13482;48.234;13.006;2024-03-02T10:27:17;17.75;;;12.70;;
25615;SDS011;13482;48.234;13.006;2024-03-02T10:29:54;18.10;;;12.38;;
25615;SDS011;13482;48.234;13.006;2024-03-02T10:32:22;16.45;;;12.00;;
25615;SDS011;13482;48.234;13.006;2024-03-02T10:34:50;15.80;;;11.52;;
25615;SDS011;13482;48.234;13.006;2024-03-02T10:40:36;16.38;;;11.57;;
25615;SDS011;13482;48.234;13.006;2024-03-02T10:43:05;15.88;;;11.85;;
25615;SDS011;13482;48.234;13.006;2024-03-02T10:45:34;15.70;;;11.35;;
25615;SDS011;13482;48.234;13.006;2024-03-02T10:48:02;15.85;;;11.35;;
25615;SDS011;13482;48.234;13.006;2024-03-02T10:50:32;17.58;;;12.60;;
25615;SDS011;13482;48.234;13.006;2024-03-02T10:53:01;16.10;;;11.30;;
25615;SDS011;13482;48.234;13.006;2024-03-02T10:55:28;14.60;;;10.32;;
25615;SDS011;13482;48.234;13.006;2024-03-02T10:57:56;16.45;;;11.75;;
25615;SDS011;13482;48.234;13.006;2024-03-02T11:00:31;16.35;;;11.65;;
25615;SDS011;13482;48.234;13.006;2024-03-02T11:03:10;16.02;;;11.65;;
25615;SDS011;13482;48.234;13.006;2024-03-02T11:05:40;15.98;;;11.10;;
25615;SDS011;13482;48.234;13.006;2024-03-02T11:08:16;16.55;;;11.77;;
25615;SDS011;13482;48.234;13.006;2024-03-02T11:10:54;16.98;;;12.20;;
25615;SDS011;13482;48.234;13.006;2024-03-02T11:13:27;15.93;;;11.35;;
25615;SDS011;13482;48.234;13.006;2024-03-02T11:16:12;15.15;;;11.18;;
25615;SDS011;13482;48.234;13.006;2024-03-02T11:19:03;17.08;;;11.43;;
25615;SDS011;13482;48.234;13.006;2024-03-02T11:21:33;16.42;;;12.25;;
25615;SDS011;13482;48.234;13.006;2024-03-02T11:26:48;17.25;;;12.93;;
25615;SDS011;13482;48.234;13.006;2024-03-02T11:32:17;15.68;;;12.00;;
25615;SDS011;13482;48.234;13.006;2024-03-02T11:34:50;15.13;;;11.00;;
25615;SDS011;13482;48.234;13.006;2024-03-02T11:37:19;17.73;;;11.70;;
25615;SDS011;13482;48.234;13.006;2024-03-02T11:39:48;15.50;;;11.40;;
25615;SDS011;13482;48.234;13.006;2024-03-02T11:42:18;17.42;;;12.48;;
25615;SDS011;13482;48.234;13.006;2024-03-02T11:44:46;16.17;;;12.00;;
25615;SDS011;13482;48.234;13.006;2024-03-02T11:47:16;15.68;;;11.75;;
25615;SDS011;13482;48.234;13.006;2024-03-02T11:49:45;16.65;;;12.20;;
25615;SDS011;13482;48.234;13.006;2024-03-02T11:52:17;17.27;;;11.98;;
25615;SDS011;13482;48.234;13.006;2024-03-02T11:54:46;16.48;;;12.18;;
25615;SDS011;13482;48.234;13.006;2024-03-02T11:57:19;15.65;;;11.30;;
25615;SDS011;13482;48.234;13.006;2024-03-02T11:59:51;16.67;;;12.00;;
25615;SDS011;13482;48.234;13.006;2024-03-02T12:02:19;17.35;;;12.88;;
25615;SDS011;13482;48.234;13.006;2024-03-02T12:04:48;17.13;;;12.90;;
25615;SDS011;13482;48.234;13.006;2024-03-02T12:07:19;16.30;;;12.38;;
25615;SDS011;13482;48.234;13.006;2024-03-02T12:09:59;16.90;;;11.95;;
25615;SDS011;13482;48.234;13.006;2024-03-02T12:12:29;16.10;;;12.77;;
25615;SDS011;13482;48.234;13.006;2024-03-02T12:14:57;16.35;;;12.25;;
25615;SDS011;13482;48.234;13.006;2024-03-02T12:17:29;15.25;;;11.27;;
25615;SDS011;13482;48.234;13.006;2024-03-02T12:19:56;17.75;;;12.73;;
25615;SDS011;13482;48.234;13.006;2024-03-02T12:22:24;17.67;;;12.38;;
25615;SDS011;13482;48.234;13.006;2024-03-02T12:24:51;16.83;;;12.10;;
25615;SDS011;13482;48.234;13.006;2024-03-02T12:27:19;16.50;;;12.10;;
25615;SDS011;13482;48.234;13.006;2024-03-02T12:29:47;17.13;;;12.15;;
25615;SDS011;13482;48.234;13.006;2024-03-02T12:32:16;15.80;;;11.75;;
25615;SDS011;13482;48.234;13.006;2024-03-02T12:34:46;15.80;;;11.23;;
25615;SDS011;13482;48.234;13.006;2024-03-02T12:37:14;15.85;;;11.52;;
25615;SDS011;13482;48.234;13.006;2024-03-02T12:39:44;15.77;;;11.73;;
25615;SDS011;13482;48.234;13.006;2024-03-02T12:42:24;18.65;;;13.05;;
25615;SDS011;13482;48.234;13.006;2024-03-02T12:44:55;17.20;;;12.13;;
25615;SDS011;13482;48.234;13.006;2024-03-02T12:47:23;15.75;;;11.95;;
25615;SDS011;13482;48.234;13.006;2024-03-02T12:49:50;16.85;;;12.45;;
25615;SDS011;13482;48.234;13.006;2024-03-02T12:52:20;15.75;;;12.13;;
25615;SDS011;13482;48.234;13.006;2024-03-02T12:54:48;18.25;;;12.02;;
25615;SDS011;13482;48.234;13.006;2024-03-02T12:57:17;17.42;;;11.50;;
25615;SDS011;13482;48.234;13.006;2024-03-02T12:59:46;17.27;;;12.38;;
25615;SDS011;13482;48.234;13.006;2024-03-02T13:02:17;15.77;;;11.57;;
25615;SDS011;13482;48.234;13.006;2024-03-02T13:08:07;13.77;;;10.20;;
25615;SDS011;13482;48.234;13.006;2024-03-02T13:10:38;13.82;;;10.30;;
25615;SDS011;13482;48.234;13.006;2024-03-02T13:13:07;14.35;;;10.73;;
25615;SDS011;13482;48.234;13.006;2024-03-02T13:15:35;14.82;;;10.73;;
25615;SDS011;13482;48.234;13.006;2024-03-02T13:18:03;15.18;;;11.25;;
25615;SDS011;13482;48.234;13.006;2024-03-02T13:20:32;15.98;;;12.00;;
25615;SDS011;13482;48.234;13.006;2024-03-02T13:23:01;15.35;;;11.90;;
25615;SDS011;13482;48.234;13.006;2024-03-02T13:25:32;18.40;;;11.80;;
25615;SDS011;13482;48.234;13.006;2024-03-02T13:27:59;14.18;;;10.73;;
25615;SDS011;13482;48.234;13.006;2024-03-02T13:30:27;14.13;;;10.85;;
25615;SDS011;13482;48.234;13.006;2024-03-02T13:32:57;15.10;;;11.68;;
25615;SDS011;13482;48.234;13.006;2024-03-02T13:35:25;15.48;;;11.70;;
25615;SDS011;13482;48.234;13.006;2024-03-02T13:40:49;16.02;;;11.32;;
25615;SDS011;13482;48.234;13.006;2024-03-02T13:43:19;17.63;;;12.43;;
25615;SDS011;13482;48.234;13.006;2024-03-02T13:45:47;16.30;;;11.90;;
25615;SDS011;13482;48.234;13.006;2024-03-02T13:48:14;16.30;;;11.98;;
25615;SDS011;13482;48.234;13.006;2024-03-02T13:50:42;16.67;;;12.23;;
25615;SDS011;13482;48.234;13.006;2024-03-02T13:53:09;16.58;;;11.95;;
25615;SDS011;13482;48.234;13.006;2024-03-02T13:55:37;17.60;;;12.45;;
25615;SDS011;13482;48.234;13.006;2024-03-02T13:58:04;15.48;;;11.57;;
25615;SDS011;13482;48.234;13.006;2024-03-02T14:00:32;14.50;;;11.30;;
25615;SDS011;13482;48.234;13.006;2024-03-02T14:03:01;15.73;;;12.02;;
25615;SDS011;13482;48.234;13.006;2024-03-02T14:05:30;15.40;;;11.57;;
25615;SDS011;13482;48.234;13.006;2024-03-02T14:07:57;16.52;;;12.18;;
25615;SDS011;13482;48.234;13.006;2024-03-02T14:10:26;14.75;;;11.68;;
25615;SDS011;13482;48.234;13.006;2024-03-02T14:12:54;15.02;;;11.40;;
25615;SDS011;13482;48.234;13.006;2024-03-02T14:15:22;15.73;;;11.88;;
25615;SDS011;13482;48.234;13.006;2024-03-02T14:17:51;15.20;;;12.23;;
25615;SDS011;13482;48.234;13.006;2024-03-02T14:20:18;13.88;;;11.93;;
25615;SDS011;13482;48.234;13.006;2024-03-02T14:22:49;15.63;;;11.40;;
25615;SDS011;13482;48.234;13.006;2024-03-02T14:25:16;16.27;;;12.00;;
25615;SDS011;13482;48.234;13.006;2024-03-02T14:27:45;14.23;;;11.27;;
25615;SDS011;13482;48.234;13.006;2024-03-02T14:30:33;13.88;;;9.85;;
25615;SDS011;13482;48.234;13.006;2024-03-02T14:33:00;15.38;;;10.68;;
25615;SDS011;13482;48.234;13.006;2024-03-02T14:35:28;13.73;;;11.07;;
25615;SDS011;13482;48.234;13.006;2024-03-02T14:37:56;13.85;;;10.68;;
25615;SDS011;13482;48.234;13.006;2024-03-02T14:40:26;14.02;;;10.45;;
25615;SDS011;13482;48.234;13.006;2024-03-02T14:42:55;13.02;;;10.23;;
25615;SDS011;13482;48.234;13.006;2024-03-02T14:45:23;12.65;;;9.75;;
25615;SDS011;13482;48.234;13.006;2024-03-02T14:47:51;13.45;;;10.38;;
25615;SDS011;13482;48.234;13.006;2024-03-02T14:50:20;13.65;;;10.00;;